Terminal Aerodrome Forecast
Issued by NWS

Home | Current Version | Previous Version | Text Only | Print | Product List | Glossary On
Versions: 1 2 3 4 5 6 7 8 9 10 11 12 13
000
FTUS44 KLUB 201100
TAFCDS
TAF
KCDS 201133Z 2012/2112 18009KT P6SM SKC
     FM201500 18019G28KT P6SM FEW070 SCT250
     FM202000 18015KT P6SM SCT100=

USA.gov is the U.S. government's official web portal to all federal, state and local government web resources and services.